OJAM/ADJ METAR and TAF weather

Enter ICAO airport designator
Station Type Date Time Source
OJAM METAR 2019/05/25 15:00 UTC NOAA

OJAM 251500Z 32010KT 4000 DU NSC 30/14 Q1015 NOSIG


Station Type Date Time Source
OJAM Decoded METAR 2019/05/25 15:00 UTC NOAA

Amman Airport, Jordan (OJAM) 31-59N 035-59E 768M
May 25, 2019 - 11:00 AM EDT / 2019.05.25 1500 UTC
Wind: from the NW (320 degrees) at 12 MPH (10 KT):0
Visibility: 2 mile(s):0
Weather: widespread dust
Temperature: 86 F (30 C)
Dew Point: 57 F (14 C)
Relative Humidity: 37%
Pressure (altimeter): 29.97 in. Hg (1015 hPa)
ob: OJAM 251500Z 32010KT 4000 DU NSC 30/14 Q1015 NOSIG
cycle: 15

Station Type Date Time Source
OJAM TAF 2019/05/25 12:15 UTC NOAA

TAF OJAM 251100Z 2512/2618 28006KT 5000 HZ NSC PROB30 2602/2606 VRB01KT 4000 FU

Example: see airport list